Atlantic Beach, New York
Current Conditions -  °F | °C
As of 7:51 PM on Tuesday 27 Jan 2015 (Local Time) from KJFK Reporting Station
Overcast Overcast  
Wind Chill: -10°   Ceiling: 15000
Heat Index: -4°   Visibility: 10mi
Dew Point: -10°   Wind: 12mph
Humidity: 63%   Direction: 340°NNW
Pressure: 29.76"   Gusts: NA
Location:  40.59°N, 73.73°W
Report Text: KJFK 280051Z 34010KT 10SM FEW040 BKN150 OVC250 M04/M10 A2976 RMK AO2 SLP075 T10391100 $
Loading
Personal Weather Stations






























Interactive Weather Map New forecast layout! Learn more

10-Day Weather Forecast

Advertisements
Track Severe Weather on mobile